Elkville, Illinois
Current Conditions -  °F | °C
As of 7:52 AM on Saturday 20 Dec 2014 (Local Time) from KMDH Reporting Station
Overcast Overcast  
Wind Chill: 33°   Ceiling: 3900
Heat Index: 33°   Visibility: 8mi
Dew Point: 29°   Wind: 3mph
Humidity: 85%   Direction: 100°E
Pressure: 30.29"   Gusts: NA
Location:  37.91°N, 89.24°W
Report Text: KMDH 201352Z AUTO 10003KT 8SM OVC039 01/M02 A3029 RMK AO2 SLP262 T00061017
Loading
Personal Weather Stations






























Interactive Weather Map New forecast layout! Learn more

10-Day Weather Forecast

Advertisements
Track Severe Weather on mobile